createdAt,value
2022-09-07T00:00:13.703Z,100.00
2022-09-07T00:02:47.913Z,100.00
2022-09-07T00:05:15.551Z,100.00
2022-09-07T00:07:48.715Z,100.00
2022-09-07T00:10:18.668Z,100.00
2022-09-07T00:12:48.770Z,100.00
2022-09-07T00:15:19.857Z,100.00
2022-09-07T00:17:47.564Z,100.00
2022-09-07T00:20:16.890Z,100.00
2022-09-07T00:22:47.806Z,100.00
2022-09-07T00:25:15.315Z,100.00
2022-09-07T00:27:43.396Z,100.00
2022-09-07T00:30:14.544Z,100.00
2022-09-07T00:32:48.039Z,100.00
2022-09-07T00:35:15.758Z,100.00
2022-09-07T00:37:43.780Z,100.00
2022-09-07T00:40:11.445Z,100.00
2022-09-07T00:42:45.721Z,100.00
2022-09-07T00:45:18.615Z,100.00
2022-09-07T00:47:50.002Z,100.00
2022-09-07T00:50:38.082Z,100.00
2022-09-07T00:53:10.577Z,100.00
2022-09-07T00:55:42.888Z,100.00
2022-09-07T00:58:11.033Z,100.00
2022-09-07T01:00:41.056Z,100.00
2022-09-07T01:03:12.178Z,100.00
2022-09-07T01:05:42.813Z,100.00
2022-09-07T01:08:13.338Z,100.00
2022-09-07T01:10:44.106Z,100.00
2022-09-07T01:13:11.615Z,100.00
2022-09-07T01:15:43.720Z,100.00
2022-09-07T01:18:35.441Z,100.00
2022-09-07T01:22:01.326Z,100.00
2022-09-07T01:24:52.695Z,100.00
2022-09-07T01:27:49.391Z,100.00
2022-09-07T01:30:19.628Z,100.00
2022-09-07T01:32:59.223Z,100.00
2022-09-07T01:35:39.442Z,100.00
2022-09-07T01:38:47.410Z,100.00
2022-09-07T01:41:18.737Z,100.00
2022-09-07T01:44:02.455Z,100.00
2022-09-07T01:46:39.099Z,100.00
2022-09-07T01:49:35.091Z,100.00
2022-09-07T01:52:16.774Z,100.00
2022-09-07T01:55:06.956Z,100.00
2022-09-07T01:57:44.325Z,100.00
2022-09-07T02:00:19.980Z,100.00
2022-09-07T02:03:01.569Z,100.00
2022-09-07T02:05:35.933Z,100.00
2022-09-07T02:08:13.562Z,100.00
2022-09-07T02:10:59.532Z,100.00
2022-09-07T02:13:48.587Z,100.00
2022-09-07T02:16:29.553Z,100.00
2022-09-07T02:19:09.207Z,100.00
2022-09-07T02:21:43.361Z,100.00
2022-09-07T02:24:23.994Z,100.00
2022-09-07T02:27:04.781Z,100.00
2022-09-07T02:29:32.776Z,100.00
2022-09-07T02:32:03.193Z,100.00
2022-09-07T02:34:32.348Z,100.00
2022-09-07T02:37:06.670Z,100.00
2022-09-07T02:39:40.688Z,100.00
2022-09-07T02:42:09.482Z,99.67
2022-09-07T02:44:42.921Z,96.53
2022-09-07T02:47:23.239Z,93.56
2022-09-07T02:50:17.437Z,93.54
2022-09-07T02:53:22.057Z,90.97
2022-09-07T02:56:04.871Z,90.80
2022-09-07T02:58:42.359Z,90.38
2022-09-07T03:01:26.175Z,91.63
2022-09-07T03:04:12.684Z,93.22
2022-09-07T03:06:49.144Z,94.52
2022-09-07T03:09:21.044Z,93.59
2022-09-07T03:11:49.213Z,92.85
2022-09-07T03:14:20.959Z,91.89
2022-09-07T03:16:51.463Z,90.71
2022-09-07T03:19:18.911Z,90.92
2022-09-07T03:21:46.425Z,89.36
2022-09-07T03:24:13.799Z,89.45
2022-09-07T03:26:45.582Z,89.83
2022-09-07T03:29:13.340Z,92.15
2022-09-07T03:31:41.177Z,91.69
2022-09-07T03:34:08.979Z,92.41
2022-09-07T03:36:36.470Z,91.13
2022-09-07T03:39:05.840Z,92.54
2022-09-07T03:41:34.034Z,92.02
2022-09-07T03:44:06.080Z,91.33
2022-09-07T03:46:34.129Z,91.29
2022-09-07T03:49:01.663Z,91.50
2022-09-07T03:51:29.377Z,88.19
2022-09-07T03:53:56.830Z,87.42
2022-09-07T03:56:27.042Z,87.61
2022-09-07T03:58:55.446Z,89.59
2022-09-07T04:01:41.700Z,90.36
2022-09-07T04:04:14.992Z,90.20
2022-09-07T04:06:47.755Z,90.82
2022-09-07T04:09:21.896Z,90.35
2022-09-07T04:11:53.345Z,89.99
2022-09-07T04:14:25.021Z,89.79
2022-09-07T04:16:53.135Z,88.78
2022-09-07T04:19:29.441Z,89.52
2022-09-07T04:21:57.504Z,92.51
2022-09-07T04:24:25.610Z,93.12
2022-09-07T04:26:54.557Z,91.36
2022-09-07T04:29:28.649Z,89.33
2022-09-07T04:31:59.374Z,90.81
2022-09-07T04:34:30.211Z,91.43
2022-09-07T04:36:57.599Z,91.14
2022-09-07T04:39:36.887Z,91.60
2022-09-07T04:42:04.472Z,91.87
2022-09-07T04:44:34.742Z,90.45
2022-09-07T04:47:05.472Z,88.62
2022-09-07T04:49:36.343Z,88.62
2022-09-07T04:52:10.767Z,89.49
2022-09-07T04:54:41.704Z,89.29
2022-09-07T04:57:11.231Z,89.99
2022-09-07T04:59:38.713Z,89.71
2022-09-07T05:02:06.806Z,89.16
2022-09-07T05:04:40.662Z,87.49
2022-09-07T05:07:11.351Z,87.88
2022-09-07T05:09:46.022Z,87.81
2022-09-07T05:12:17.128Z,87.82
2022-09-07T05:14:48.275Z,86.51
2022-09-07T05:17:19.541Z,86.95
2022-09-07T05:19:49.827Z,85.55
2022-09-07T05:22:20.094Z,85.54
2022-09-07T05:24:56.605Z,84.91
2022-09-07T05:27:30.743Z,84.67
2022-09-07T05:32:37.578Z,84.31
2022-09-07T05:35:08.853Z,83.92
2022-09-07T05:37:36.175Z,83.26
2022-09-07T05:40:08.187Z,83.01
2022-09-07T05:42:39.139Z,82.85
2022-09-07T05:45:07.419Z,81.84
2022-09-07T05:47:37.998Z,80.60
2022-09-07T05:50:09.950Z,78.88
2022-09-07T05:52:45.504Z,76.87
2022-09-07T05:55:29.547Z,75.04
2022-09-07T05:58:03.890Z,73.30
2022-09-07T06:00:35.836Z,72.79
2022-09-07T06:03:03.431Z,71.77
2022-09-07T06:05:34.425Z,71.64
2022-09-07T06:08:05.122Z,71.42
2022-09-07T06:10:45.675Z,71.75
2022-09-07T06:13:13.584Z,73.48
2022-09-07T06:15:44.579Z,74.92
2022-09-07T06:18:17.972Z,74.81
2022-09-07T06:20:49.301Z,73.48
2022-09-07T06:23:23.104Z,73.96
2022-09-07T06:25:50.956Z,73.23
2022-09-07T06:29:01.565Z,73.22
2022-09-07T06:34:27.669Z,75.42
2022-09-07T06:36:57.707Z,75.01
2022-09-07T06:39:31.498Z,75.72
2022-09-07T06:42:05.713Z,75.08
2022-09-07T06:44:36.975Z,75.05
2022-09-07T06:47:10.355Z,74.67
2022-09-07T06:49:40.258Z,75.33
2022-09-07T06:52:10.552Z,74.34
2022-09-07T06:57:31.968Z,74.27
2022-09-07T07:00:05.223Z,74.83
2022-09-07T07:02:46.554Z,75.78
2022-09-07T07:05:24.214Z,75.37
2022-09-07T07:07:57.704Z,75.24
2022-09-07T07:10:29.527Z,74.55
2022-09-07T07:12:59.746Z,74.21
2022-09-07T07:15:33.569Z,74.14
2022-09-07T07:18:20.270Z,74.18
2022-09-07T07:20:55.114Z,72.93
2022-09-07T07:23:24.893Z,72.18
2022-09-07T07:25:52.315Z,73.50
2022-09-07T07:31:19.246Z,71.25
2022-09-07T07:33:52.230Z,70.65
2022-09-07T07:37:04.931Z,71.36
2022-09-07T07:50:56.602Z,69.06
2022-09-07T07:53:47.471Z,69.65
2022-09-07T07:56:16.557Z,68.08
2022-09-07T07:58:48.103Z,67.85
2022-09-07T08:01:22.494Z,67.12
2022-09-07T08:03:52.930Z,68.22
2022-09-07T08:06:21.200Z,68.02
2022-09-07T08:08:51.997Z,67.21
2022-09-07T08:11:25.003Z,67.88
2022-09-07T08:13:52.854Z,66.04
2022-09-07T08:16:29.683Z,66.20
2022-09-07T08:19:03.330Z,66.17
2022-09-07T08:21:37.797Z,66.97
2022-09-07T08:24:05.373Z,67.38
2022-09-07T08:26:35.907Z,65.43
2022-09-07T08:29:03.488Z,64.00
2022-09-07T08:31:30.910Z,64.63
2022-09-07T08:34:02.471Z,63.85
2022-09-07T08:36:33.407Z,65.08
2022-09-07T08:39:05.681Z,63.69
2022-09-07T08:41:45.626Z,63.84
2022-09-07T08:44:24.366Z,63.89
2022-09-07T08:46:57.985Z,62.79
2022-09-07T08:49:47.449Z,59.86
2022-09-07T08:52:25.021Z,58.95
2022-09-07T08:55:03.915Z,60.11
2022-09-07T08:57:35.168Z,60.55
2022-09-07T09:00:11.539Z,59.57
2022-09-07T09:02:45.600Z,58.85
2022-09-07T09:05:21.965Z,56.63
2022-09-07T09:08:27.359Z,56.59
2022-09-07T09:11:06.497Z,57.46
2022-09-07T09:13:59.746Z,57.65
2022-09-07T09:16:55.287Z,58.73
2022-09-07T09:19:54.700Z,57.98
2022-09-07T09:22:28.812Z,56.75
2022-09-07T09:25:23.684Z,57.91
2022-09-07T09:27:53.907Z,56.72
2022-09-07T09:30:26.022Z,58.44
2022-09-07T09:33:29.069Z,55.27
2022-09-07T09:36:01.714Z,55.56
2022-09-07T09:38:35.998Z,55.13
2022-09-07T09:41:11.390Z,54.32
2022-09-07T09:43:52.866Z,56.60
2022-09-07T09:46:25.539Z,54.47
2022-09-07T09:49:16.414Z,55.07
2022-09-07T09:54:55.827Z,55.08
2022-09-07T09:59:04.811Z,55.65
2022-09-07T10:00:36.406Z,55.33
2022-09-07T10:06:16.928Z,53.18
2022-09-07T10:09:01.233Z,53.83
2022-09-07T10:14:42.147Z,58.77
2022-09-07T10:17:42.947Z,54.52
2022-09-07T10:20:13.741Z,54.86
2022-09-07T10:22:51.775Z,53.39
2022-09-07T10:25:42.067Z,57.22
2022-09-07T10:28:19.974Z,59.65
2022-09-07T10:31:12.453Z,55.74
2022-09-07T10:36:55.160Z,56.97
2022-09-07T10:39:50.947Z,53.75
2022-09-07T10:42:30.523Z,55.41
2022-09-07T10:45:24.351Z,53.27
2022-09-07T10:48:03.671Z,54.36
2022-09-07T10:50:43.530Z,53.54
2022-09-07T10:53:44.658Z,51.49
2022-09-07T10:56:35.503Z,54.50
2022-09-07T11:00:07.429Z,54.67
2022-09-07T11:02:24.856Z,53.25
2022-09-07T11:05:35.105Z,53.08
2022-09-07T11:08:27.168Z,54.37
2022-09-07T11:11:10.232Z,53.81
2022-09-07T11:14:08.982Z,55.30
2022-09-07T11:16:51.041Z,54.42
2022-09-07T11:19:44.107Z,53.51
2022-09-07T11:22:21.147Z,53.25
2022-09-07T11:25:33.044Z,53.43
2022-09-07T11:28:14.209Z,52.87
2022-09-07T11:30:47.982Z,52.24
2022-09-07T11:33:27.313Z,52.47
2022-09-07T11:36:11.833Z,53.08
2022-09-07T11:38:47.048Z,52.17
2022-09-07T11:41:17.843Z,51.62
2022-09-07T11:44:01.105Z,47.59
2022-09-07T11:46:43.501Z,49.75
2022-09-07T11:49:22.300Z,50.53
2022-09-07T11:51:55.773Z,47.36
2022-09-07T11:54:45.129Z,48.15
2022-09-07T11:57:15.727Z,48.91
2022-09-07T12:00:18.909Z,48.60
2022-09-07T12:03:04.940Z,48.70
2022-09-07T12:05:44.173Z,49.40
2022-09-07T12:08:25.762Z,48.27
2022-09-07T12:11:01.970Z,48.93
2022-09-07T12:13:37.692Z,48.28
2022-09-07T12:16:23.367Z,51.36
2022-09-07T12:19:19.594Z,50.20
2022-09-07T12:21:53.293Z,52.59
2022-09-07T12:24:34.754Z,50.90
2022-09-07T12:27:22.268Z,51.62
2022-09-07T12:30:07.965Z,50.96
2022-09-07T12:32:55.803Z,49.94
2022-09-07T12:35:26.308Z,49.66
2022-09-07T12:37:54.910Z,50.07
2022-09-07T12:40:28.215Z,50.29
2022-09-07T12:43:13.811Z,49.09
2022-09-07T12:45:41.296Z,48.85
2022-09-07T12:48:29.186Z,48.92
2022-09-07T12:51:59.346Z,48.79
2022-09-07T12:54:24.648Z,50.30
2022-09-07T12:59:51.652Z,50.32
2022-09-07T13:02:22.216Z,49.07
2022-09-07T13:05:30.657Z,48.32
2022-09-07T13:08:13.583Z,49.18
2022-09-07T13:10:43.342Z,49.07
2022-09-07T13:13:14.506Z,51.50
2022-09-07T13:15:49.009Z,48.44
2022-09-07T13:18:28.775Z,48.25
2022-09-07T13:21:08.144Z,50.41
2022-09-07T13:23:40.022Z,48.81
2022-09-07T13:26:15.134Z,49.46
2022-09-07T13:28:51.133Z,49.60
2022-09-07T13:31:46.566Z,49.29
2022-09-07T13:34:41.522Z,49.59
2022-09-07T13:37:19.121Z,49.88
2022-09-07T13:39:58.877Z,47.74
2022-09-07T13:42:32.510Z,47.93
2022-09-07T13:45:02.326Z,51.08
2022-09-07T13:47:43.502Z,49.40
2022-09-07T13:50:13.827Z,49.41
2022-09-07T13:53:09.001Z,47.61
2022-09-07T13:56:11.734Z,49.12
2022-09-07T13:58:46.368Z,50.03
2022-09-07T14:01:21.718Z,49.62
2022-09-07T14:03:53.738Z,49.22
2022-09-07T14:06:21.092Z,49.90
2022-09-07T14:09:01.089Z,49.70
2022-09-07T14:11:40.283Z,48.98
2022-09-07T14:14:30.636Z,50.45
2022-09-07T14:17:00.933Z,49.52
2022-09-07T14:19:46.359Z,48.96
2022-09-07T14:22:31.998Z,49.10
2022-09-07T14:25:01.855Z,51.94
2022-09-07T14:27:41.388Z,49.78
2022-09-07T14:30:30.737Z,49.20
2022-09-07T14:33:05.081Z,49.50
2022-09-07T14:35:34.533Z,48.51
2022-09-07T14:41:25.873Z,49.61
2022-09-07T14:44:00.389Z,49.88
2022-09-07T14:46:33.371Z,50.39
2022-09-07T14:49:18.640Z,49.20
2022-09-07T14:51:48.479Z,48.33
2022-09-07T14:54:36.332Z,48.04
2022-09-07T14:57:29.840Z,48.67
2022-09-07T15:00:17.633Z,48.72
2022-09-07T15:02:47.753Z,47.90
2022-09-07T15:05:25.483Z,48.83
2022-09-07T15:07:57.302Z,49.61
2022-09-07T15:10:31.706Z,49.73
2022-09-07T15:13:03.297Z,49.06
2022-09-07T15:15:37.478Z,50.06
2022-09-07T15:18:46.361Z,48.88
2022-09-07T15:21:14.692Z,48.37
2022-09-07T15:23:44.973Z,48.24
2022-09-07T15:29:14.537Z,47.44
2022-09-07T15:31:59.357Z,47.98
2022-09-07T15:34:35.186Z,49.02
2022-09-07T15:40:02.085Z,48.94
2022-09-07T15:45:23.595Z,50.09
2022-09-07T15:47:53.298Z,48.65
2022-09-07T15:50:23.109Z,48.69
2022-09-07T15:52:51.165Z,50.14
2022-09-07T15:55:18.846Z,50.07
2022-09-07T15:57:54.581Z,50.87
2022-09-07T16:00:31.955Z,50.84
2022-09-07T16:03:06.817Z,54.75
2022-09-07T16:05:39.766Z,53.89
2022-09-07T16:08:27.545Z,52.37
2022-09-07T16:11:05.246Z,52.71
2022-09-07T16:13:37.229Z,54.08
2022-09-07T16:16:11.081Z,56.16
2022-09-07T16:18:41.877Z,60.11
2022-09-07T16:21:13.319Z,56.55
2022-09-07T16:23:50.390Z,59.21
2022-09-07T16:26:20.788Z,60.13
2022-09-07T16:28:54.461Z,62.68
2022-09-07T16:31:26.506Z,60.78
2022-09-07T16:34:02.042Z,63.16
2022-09-07T16:36:32.794Z,61.68
2022-09-07T16:39:03.909Z,63.63
2022-09-07T16:41:32.028Z,70.75
2022-09-07T16:44:02.402Z,62.43
2022-09-07T16:46:30.438Z,62.74
2022-09-07T16:49:02.018Z,60.23
2022-09-07T16:51:36.002Z,59.97
2022-09-07T16:54:13.309Z,65.55
2022-09-07T16:56:48.253Z,62.78
2022-09-07T16:59:30.601Z,64.59
2022-09-07T17:02:05.286Z,62.83
2022-09-07T17:04:34.525Z,62.99
2022-09-07T17:07:05.011Z,62.28
2022-09-07T17:09:35.451Z,62.47
2022-09-07T17:12:04.556Z,62.71
2022-09-07T17:14:35.619Z,62.67
2022-09-07T17:17:06.004Z,63.02
2022-09-07T17:19:35.627Z,63.57
2022-09-07T17:22:03.937Z,65.42
2022-09-07T17:24:32.209Z,63.56
2022-09-07T17:27:01.334Z,65.54
2022-09-07T17:29:29.605Z,65.19
2022-09-07T17:35:00.827Z,66.25
2022-09-07T17:37:36.334Z,65.62
2022-09-07T17:40:10.524Z,64.76
2022-09-07T17:45:47.766Z,69.49
2022-09-07T17:48:15.055Z,66.51
2022-09-07T17:50:43.003Z,66.93
2022-09-07T17:53:19.228Z,66.37
2022-09-07T17:55:49.669Z,67.72
2022-09-07T17:58:17.002Z,69.55
2022-09-07T18:00:44.985Z,67.48
2022-09-07T18:03:13.763Z,68.07
2022-09-07T18:05:41.285Z,68.70
2022-09-07T18:08:12.286Z,69.50
2022-09-07T18:13:36.088Z,70.15
2022-09-07T18:16:29.216Z,70.24
2022-09-07T18:19:00.086Z,74.59
2022-09-07T18:21:44.318Z,72.75
2022-09-07T18:24:18.409Z,70.72
2022-09-07T18:26:52.423Z,70.87
2022-09-07T18:29:29.489Z,75.08
2022-09-07T18:32:08.450Z,74.41
2022-09-07T18:34:41.695Z,72.22
2022-09-07T18:37:19.233Z,72.25
2022-09-07T18:39:54.721Z,69.80
2022-09-07T18:42:22.385Z,77.72
2022-09-07T18:47:36.926Z,72.40
2022-09-07T18:50:11.149Z,71.92
2022-09-07T18:52:59.109Z,69.51
2022-09-07T18:55:32.224Z,69.85
2022-09-07T18:58:00.014Z,70.04
2022-09-07T19:00:30.511Z,72.42
2022-09-07T19:03:03.832Z,69.94
2022-09-07T19:05:50.688Z,68.96
2022-09-07T19:08:24.352Z,70.24
2022-09-07T19:10:52.385Z,67.51
2022-09-07T19:13:22.364Z,66.55
2022-09-07T19:15:53.330Z,68.00
2022-09-07T19:18:27.226Z,67.75
2022-09-07T19:21:06.084Z,67.75
2022-09-07T19:23:36.802Z,67.23
2022-09-07T19:26:09.554Z,67.90
2022-09-07T19:28:40.045Z,66.42
2022-09-07T19:31:07.913Z,65.85
2022-09-07T19:33:41.055Z,67.62
2022-09-07T19:36:19.113Z,67.36
2022-09-07T19:38:46.467Z,67.25
2022-09-07T19:41:17.201Z,67.82
2022-09-07T19:43:59.347Z,67.03
2022-09-07T19:46:36.612Z,66.66
2022-09-07T19:49:07.329Z,67.68
2022-09-07T19:51:36.874Z,67.81
2022-09-07T19:54:10.730Z,68.02
2022-09-07T19:56:40.256Z,70.17
2022-09-07T19:59:07.711Z,71.13
2022-09-07T20:01:41.654Z,71.87
2022-09-07T20:04:19.010Z,72.01
2022-09-07T20:06:48.256Z,72.62
2022-09-07T20:09:16.740Z,73.36
2022-09-07T20:11:46.700Z,73.87
2022-09-07T20:14:21.120Z,74.58
2022-09-07T20:16:48.485Z,75.52
2022-09-07T20:19:23.213Z,75.28
2022-09-07T20:21:50.797Z,76.00
2022-09-07T20:24:20.243Z,76.03
2022-09-07T20:26:57.694Z,76.64
2022-09-07T20:29:30.205Z,76.98
2022-09-07T20:32:01.992Z,78.12
2022-09-07T20:34:31.632Z,79.25
2022-09-07T20:36:58.962Z,78.75
2022-09-07T20:39:26.315Z,79.06
2022-09-07T20:41:54.325Z,79.96
2022-09-07T20:44:24.734Z,79.39
2022-09-07T20:46:52.095Z,80.35
2022-09-07T20:49:19.409Z,81.18
2022-09-07T20:51:46.784Z,81.95
2022-09-07T20:54:14.278Z,81.40
2022-09-07T20:56:41.907Z,81.60
2022-09-07T20:59:09.409Z,81.76
2022-09-07T21:01:36.891Z,82.89
2022-09-07T21:04:04.487Z,82.48
2022-09-07T21:06:32.661Z,83.61
2022-09-07T21:09:00.522Z,84.46
2022-09-07T21:11:33.988Z,84.47
2022-09-07T21:14:02.383Z,84.81
2022-09-07T21:16:29.878Z,85.12
2022-09-07T21:18:59.264Z,85.95
2022-09-07T21:21:36.631Z,86.57
2022-09-07T21:24:07.141Z,87.12
2022-09-07T21:26:34.471Z,87.44
2022-09-07T21:29:03.706Z,88.10
2022-09-07T21:31:32.741Z,88.52
2022-09-07T21:34:01.642Z,89.58
2022-09-07T21:36:30.226Z,89.28
2022-09-07T21:38:57.581Z,89.88
2022-09-07T21:41:25.636Z,89.82
2022-09-07T21:44:01.519Z,89.99
2022-09-07T21:46:31.451Z,90.03
2022-09-07T21:48:59.930Z,89.36
2022-09-07T21:51:27.766Z,89.73
2022-09-07T21:53:57.242Z,89.41
2022-09-07T21:56:25.704Z,89.72
2022-09-07T21:58:58.014Z,89.32
2022-09-07T22:01:27.400Z,89.49
2022-09-07T22:03:57.122Z,89.57
2022-09-07T22:06:25.432Z,89.58
2022-09-07T22:08:52.735Z,89.83
2022-09-07T22:11:22.202Z,90.01
2022-09-07T22:13:53.082Z,89.01
2022-09-07T22:16:20.433Z,90.27
2022-09-07T22:18:48.214Z,90.21
2022-09-07T22:21:18.431Z,90.67
2022-09-07T22:23:48.813Z,90.55
2022-09-07T22:26:21.153Z,90.79
2022-09-07T22:28:48.930Z,92.03
2022-09-07T22:31:28.861Z,91.14
2022-09-07T22:33:58.276Z,91.85
2022-09-07T22:36:28.887Z,92.15
2022-09-07T22:38:59.059Z,92.18
2022-09-07T22:41:32.386Z,92.53
2022-09-07T22:44:00.024Z,92.38
2022-09-07T22:46:30.256Z,92.86
2022-09-07T22:48:58.899Z,92.64
2022-09-07T22:51:27.098Z,92.01
2022-09-07T22:53:55.601Z,92.08
2022-09-07T22:56:25.617Z,91.46
2022-09-07T22:58:56.793Z,92.13
2022-09-07T23:01:24.648Z,91.76
2022-09-07T23:03:52.198Z,91.89
2022-09-07T23:06:23.860Z,90.85
2022-09-07T23:08:53.712Z,90.80
2022-09-07T23:11:21.367Z,90.70
2022-09-07T23:13:59.266Z,91.21
2022-09-07T23:16:27.741Z,92.24
2022-09-07T23:18:56.072Z,91.74
2022-09-07T23:21:23.885Z,92.02
2022-09-07T23:23:56.768Z,92.59
2022-09-07T23:26:25.903Z,92.53
2022-09-07T23:28:58.947Z,93.40
2022-09-07T23:31:27.279Z,92.76
2022-09-07T23:33:56.259Z,93.18
2022-09-07T23:36:24.304Z,93.21
2022-09-07T23:38:54.950Z,93.59
2022-09-07T23:41:23.987Z,92.84
2022-09-07T23:43:54.751Z,92.94
2022-09-07T23:46:22.724Z,93.92
2022-09-07T23:48:51.094Z,93.91
2022-09-07T23:51:23.579Z,93.63
2022-09-07T23:53:52.789Z,94.25
2022-09-07T23:56:20.837Z,95.44
2022-09-07T23:58:48.714Z,94.71
